Terminal Aerodrome Forecast
Issued by NWS Jackson, MS

Home | Current Version | Previous Version | Text Only | Print | Product List | Glossary On
Versions: 1 2 3 4 5 6 7 8 9 10 11 12 13
864
FTUS44 KJAN 050538
TAFHBG
TAF
KHBG 050538Z 0506/0606 01005KT 5SM RA BR OVC008
     FM050900 02006KT 4SM BR VCSH OVC003
     FM051200 04006KT 3SM RA BR VCTS BKN007 OVC015CB
     FM052000 09005KT 3SM RA BR VCTS BKN007 OVC015CB
     FM060200 14010KT 4SM -RA BR VCTS BKN003 OVC010CB=

USA.gov is the U.S. government's official web portal to all federal, state and local government web resources and services.